createdAt,value
2023-01-28T00:00:30.332Z,89
2023-01-28T00:05:30.388Z,89
2023-01-28T00:10:30.478Z,89
2023-01-28T00:15:30.598Z,89
2023-01-28T00:20:30.735Z,89
2023-01-28T00:25:31.558Z,89
2023-01-28T00:30:30.769Z,90
2023-01-28T00:35:30.010Z,90
2023-01-28T00:40:30.222Z,89
2023-01-28T00:45:30.508Z,89
2023-01-28T00:50:31.021Z,90
2023-01-28T00:55:30.553Z,90
2023-01-28T01:00:30.392Z,90
2023-01-28T01:05:30.573Z,90
2023-01-28T01:10:30.555Z,90
2023-01-28T01:15:30.644Z,90
2023-01-28T01:20:30.012Z,90
2023-01-28T01:25:30.027Z,90
2023-01-28T01:30:30.702Z,90
2023-01-28T01:35:30.815Z,90
2023-01-28T01:40:30.956Z,90
2023-01-28T01:45:30.016Z,90
2023-01-28T01:50:30.897Z,91
2023-01-28T01:55:30.151Z,91
2023-01-28T02:00:30.421Z,91
2023-01-28T02:05:30.604Z,91
2023-01-28T02:10:30.840Z,91
2023-01-28T02:15:30.857Z,91
2023-01-28T02:20:29.994Z,91
2023-01-28T02:25:31.890Z,91
2023-01-28T02:30:30.219Z,91
2023-01-28T02:35:31.047Z,91
2023-01-28T02:40:30.142Z,91
2023-01-28T02:45:30.312Z,91
2023-01-28T02:50:30.553Z,91
2023-01-28T02:55:30.244Z,91
2023-01-28T03:00:30.594Z,91
2023-01-28T03:05:30.103Z,91
2023-01-28T03:10:30.659Z,91
2023-01-28T03:15:30.252Z,91
2023-01-28T03:20:30.446Z,92
2023-01-28T03:25:30.381Z,92
2023-01-28T03:30:30.468Z,92
2023-01-28T03:35:30.335Z,92
2023-01-28T03:40:30.958Z,92
2023-01-28T03:45:30.847Z,92
2023-01-28T03:50:30.101Z,92
2023-01-28T03:55:30.905Z,92
2023-01-28T04:00:30.349Z,92
2023-01-28T04:05:30.638Z,92
2023-01-28T04:10:30.261Z,92
2023-01-28T04:15:30.300Z,92
2023-01-28T04:20:30.646Z,92
2023-01-28T04:25:30.796Z,92
2023-01-28T04:30:30.470Z,92
2023-01-28T04:35:30.963Z,92
2023-01-28T04:40:30.269Z,92
2023-01-28T04:45:30.394Z,92
2023-01-28T04:50:30.510Z,92
2023-01-28T04:55:30.599Z,92
2023-01-28T05:00:31.065Z,93
2023-01-28T05:05:30.297Z,93
2023-01-28T05:10:30.573Z,93
2023-01-28T05:15:30.799Z,93
2023-01-28T05:20:30.884Z,93
2023-01-28T05:25:30.063Z,93
2023-01-28T05:30:30.371Z,93
2023-01-28T05:35:30.674Z,93
2023-01-28T05:40:31.210Z,93
2023-01-28T05:45:30.341Z,93
2023-01-28T05:50:30.392Z,93
2023-01-28T05:55:30.400Z,93
2023-01-28T06:00:30.396Z,93
2023-01-28T06:05:30.570Z,93
2023-01-28T06:10:30.861Z,93
2023-01-28T06:15:31.083Z,93
2023-01-28T06:20:30.412Z,92
2023-01-28T06:25:30.899Z,92
2023-01-28T06:30:31.045Z,92
2023-01-28T06:35:30.127Z,92
2023-01-28T06:40:30.303Z,93
2023-01-28T06:45:30.303Z,93
2023-01-28T06:50:30.429Z,93
2023-01-28T06:55:30.551Z,93
2023-01-28T07:00:30.902Z,93
2023-01-28T07:05:31.093Z,93
2023-01-28T07:10:30.799Z,92
2023-01-28T07:15:31.163Z,92
2023-01-28T07:20:30.202Z,93
2023-01-28T07:25:30.373Z,93
2023-01-28T07:30:30.409Z,92
2023-01-28T07:35:30.961Z,92
2023-01-28T07:40:31.216Z,93
2023-01-28T07:45:30.648Z,93
2023-01-28T07:50:30.980Z,93
2023-01-28T07:55:31.535Z,93
2023-01-28T08:00:30.613Z,93
2023-01-28T08:05:30.947Z,93
2023-01-28T08:10:30.901Z,93
2023-01-28T08:15:33.340Z,93
2023-01-28T08:20:30.639Z,93
2023-01-28T08:25:30.893Z,93
2023-01-28T08:30:30.441Z,93
2023-01-28T08:35:30.241Z,93
2023-01-28T08:40:30.351Z,94
2023-01-28T08:45:30.382Z,94
2023-01-28T08:50:30.514Z,94
2023-01-28T08:55:30.686Z,94
2023-01-28T09:00:30.830Z,94
2023-01-28T09:06:24.514Z,94
2023-01-28T09:10:30.520Z,94
2023-01-28T09:15:30.817Z,94
2023-01-28T09:20:30.377Z,94
2023-01-28T09:25:30.422Z,94
2023-01-28T09:30:30.567Z,94
2023-01-28T09:35:30.899Z,94
2023-01-28T09:40:30.809Z,93
2023-01-28T09:45:30.821Z,93
2023-01-28T09:50:30.574Z,91
2023-01-28T09:55:30.988Z,91
2023-01-28T10:00:31.141Z,88
2023-01-28T10:05:30.539Z,88
2023-01-28T10:10:30.997Z,84
2023-01-28T10:15:31.056Z,84
2023-01-28T10:20:30.297Z,83
2023-01-28T10:25:30.399Z,83
2023-01-28T10:30:30.972Z,82
2023-01-28T10:35:31.006Z,82
2023-01-28T10:40:31.159Z,81
2023-01-28T10:45:30.274Z,81
2023-01-28T10:50:30.795Z,81
2023-01-28T10:55:31.035Z,81
2023-01-28T11:00:31.298Z,79
2023-01-28T11:05:30.330Z,79
2023-01-28T11:10:30.521Z,79
2023-01-28T11:15:30.548Z,79
2023-01-28T11:20:30.619Z,79
2023-01-28T11:25:30.920Z,79
2023-01-28T11:30:31.055Z,78
2023-01-28T11:35:31.138Z,78
2023-01-28T11:40:31.342Z,77
2023-01-28T11:45:30.485Z,77
2023-01-28T11:50:30.786Z,77
2023-01-28T11:55:30.983Z,77
2023-01-28T12:00:30.581Z,76
2023-01-28T12:05:30.771Z,76
2023-01-28T12:10:30.949Z,75
2023-01-28T12:15:30.981Z,75
2023-01-28T12:20:30.968Z,76
2023-01-28T12:25:30.988Z,76
2023-01-28T12:30:30.793Z,76
2023-01-28T12:35:31.071Z,76
2023-01-28T12:40:33.525Z,76
2023-01-28T12:45:30.895Z,76
2023-01-28T12:50:30.987Z,76
2023-01-28T12:55:31.055Z,76
2023-01-28T13:00:30.885Z,75
2023-01-28T13:05:30.847Z,75
2023-01-28T13:10:30.936Z,75
2023-01-28T13:15:30.837Z,75
2023-01-28T13:20:30.996Z,76
2023-01-28T13:25:31.052Z,76
2023-01-28T13:30:30.720Z,76
2023-01-28T13:35:31.150Z,76
2023-01-28T13:40:31.388Z,77
2023-01-28T13:45:30.322Z,77
2023-01-28T13:50:30.480Z,78
2023-01-28T13:55:43.455Z,78
2023-01-28T14:00:30.697Z,78
2023-01-28T14:05:30.696Z,78
2023-01-28T14:10:30.991Z,78
2023-01-28T14:15:31.240Z,78
2023-01-28T14:20:30.803Z,77
2023-01-28T14:25:30.857Z,77
2023-01-28T14:30:30.918Z,77
2023-01-28T14:35:30.954Z,77
2023-01-28T14:40:30.984Z,79
2023-01-28T14:45:31.083Z,79
2023-01-28T14:50:30.446Z,79
2023-01-28T14:55:30.627Z,79
2023-01-28T15:00:30.949Z,80
2023-01-28T15:05:30.463Z,80
2023-01-28T15:10:30.776Z,81
2023-01-28T15:15:30.676Z,81
2023-01-28T15:20:30.866Z,81
2023-01-28T15:25:30.664Z,81
2023-01-28T15:30:31.067Z,82
2023-01-28T15:35:31.343Z,82
2023-01-28T15:40:31.373Z,82
2023-01-28T15:45:30.364Z,82
2023-01-28T15:50:31.119Z,83
2023-01-28T15:55:30.658Z,83
2023-01-28T16:00:31.487Z,83
2023-01-28T16:05:31.160Z,83
2023-01-28T16:10:31.519Z,83
2023-01-28T16:15:30.580Z,83
2023-01-28T16:20:30.772Z,84
2023-01-28T16:25:30.882Z,84
2023-01-28T16:30:30.867Z,84
2023-01-28T16:35:46.921Z,84
2023-01-28T16:40:30.684Z,85
2023-01-28T16:45:30.937Z,85
2023-01-28T16:50:31.048Z,85
2023-01-28T16:55:31.164Z,85
2023-01-28T17:00:31.294Z,85
2023-01-28T17:05:30.934Z,85
2023-01-28T17:10:31.296Z,85
2023-01-28T17:15:30.521Z,85
2023-01-28T17:20:30.431Z,86
2023-01-28T17:25:31.026Z,86
2023-01-28T17:30:30.535Z,87
2023-01-28T17:35:30.538Z,87
2023-01-28T17:40:30.763Z,88
2023-01-28T17:45:30.944Z,88
2023-01-28T17:50:31.136Z,88
2023-01-28T17:55:31.149Z,88
2023-01-28T18:00:31.079Z,89
2023-01-28T18:05:31.103Z,89
2023-01-28T18:10:31.346Z,89
2023-01-28T18:15:31.419Z,89
2023-01-28T18:20:31.437Z,89
2023-01-28T18:25:31.434Z,89
2023-01-28T18:30:31.611Z,90
2023-01-28T18:35:30.564Z,90
2023-01-28T18:40:30.618Z,90
2023-01-28T18:45:30.953Z,90
2023-01-28T18:50:31.132Z,90
2023-01-28T18:55:31.124Z,90
2023-01-28T19:00:30.544Z,90
2023-01-28T19:05:30.851Z,90
2023-01-28T19:10:31.244Z,91
2023-01-28T19:15:31.335Z,91
2023-01-28T19:20:30.537Z,91
2023-01-28T19:25:31.615Z,91
2023-01-28T19:30:30.728Z,91
2023-01-28T19:35:30.790Z,91
2023-01-28T19:40:30.987Z,91
2023-01-28T19:45:31.053Z,91
2023-01-28T19:50:31.113Z,91
2023-01-28T19:55:31.151Z,91
2023-01-28T20:00:31.028Z,91
2023-01-28T20:05:31.070Z,91
2023-01-28T20:10:31.421Z,92
2023-01-28T20:15:31.519Z,92
2023-01-28T20:20:30.731Z,92
2023-01-28T20:25:30.749Z,92
2023-01-28T20:30:31.292Z,93
2023-01-28T20:35:31.356Z,93
2023-01-28T20:40:31.345Z,93
2023-01-28T20:45:31.560Z,93
2023-01-28T20:50:31.502Z,94
2023-01-28T20:55:31.516Z,94
2023-01-28T21:00:30.853Z,94
2023-01-28T21:05:30.760Z,94
2023-01-28T21:10:31.518Z,94
2023-01-28T21:15:30.730Z,94
2023-01-28T21:20:30.790Z,95
2023-01-28T21:25:30.858Z,95
2023-01-28T21:30:31.627Z,95
2023-01-28T21:35:30.585Z,95
2023-01-28T21:40:30.832Z,95
2023-01-28T21:45:30.892Z,95
2023-01-28T21:50:31.013Z,95
2023-01-28T21:55:31.128Z,95
2023-01-28T22:00:31.560Z,95
2023-01-28T22:05:30.843Z,95
2023-01-28T22:10:30.888Z,95
2023-01-28T22:15:30.922Z,95
2023-01-28T22:20:31.657Z,96
2023-01-28T22:25:31.647Z,96
2023-01-28T22:30:30.935Z,96
2023-01-28T22:35:31.033Z,96
2023-01-28T22:40:30.985Z,96
2023-01-28T22:45:31.128Z,96
2023-01-28T22:50:31.172Z,96
2023-01-28T22:55:31.223Z,96
2023-01-28T23:00:31.241Z,96
2023-01-28T23:05:30.972Z,96
2023-01-28T23:10:33.763Z,96
2023-01-28T23:15:31.016Z,96
2023-01-28T23:20:31.225Z,97
2023-01-28T23:25:31.268Z,97
2023-01-28T23:30:31.674Z,97
2023-01-28T23:35:30.663Z,97
2023-01-28T23:40:31.743Z,97
2023-01-28T23:45:30.903Z,97
2023-01-28T23:50:30.926Z,97
2023-01-28T23:55:31.140Z,97
